createdAt,value
2018-12-27T00:00:23.990Z,-0.76
2018-12-27T00:02:55.028Z,-0.79
2018-12-27T00:05:22.339Z,-0.78
2018-12-27T00:07:50.733Z,-0.81
2018-12-27T00:10:19.025Z,-0.80
2018-12-27T00:12:47.406Z,-0.77
2018-12-27T00:15:17.409Z,-0.76
2018-12-27T00:17:45.738Z,-0.78
2018-12-27T00:20:13.978Z,-0.77
2018-12-27T00:22:42.334Z,-0.79
2018-12-27T00:25:10.585Z,-0.81
2018-12-27T00:27:38.963Z,-0.77
2018-12-27T00:30:07.590Z,-0.77
2018-12-27T00:32:36.209Z,-0.77
2018-12-27T00:35:04.940Z,-0.77
2018-12-27T00:37:33.710Z,-0.74
2018-12-27T00:40:02.284Z,-0.75
2018-12-27T00:42:30.929Z,-0.67
2018-12-27T00:44:59.611Z,-0.70
2018-12-27T00:47:28.310Z,-0.71
2018-12-27T00:49:57.097Z,-0.73
2018-12-27T00:52:25.703Z,-0.71
2018-12-27T00:54:54.416Z,-0.69
2018-12-27T00:57:23.081Z,-0.68
2018-12-27T00:59:51.771Z,-0.68
2018-12-27T01:02:20.404Z,-0.71
2018-12-27T01:04:49.042Z,-0.72
2018-12-27T01:07:17.692Z,-0.70
2018-12-27T01:09:46.299Z,-0.69
2018-12-27T01:12:14.887Z,-0.71
2018-12-27T01:14:43.520Z,-0.74
2018-12-27T01:17:12.109Z,-0.76
2018-12-27T01:19:40.703Z,-0.75
2018-12-27T01:22:09.327Z,-0.76
2018-12-27T01:24:38.018Z,-0.78
2018-12-27T01:27:06.649Z,-0.83
2018-12-27T01:29:35.372Z,-0.84
2018-12-27T01:32:03.964Z,-0.79
2018-12-27T01:34:32.743Z,-0.79
2018-12-27T01:37:01.321Z,-0.79
2018-12-27T01:39:29.947Z,-0.79
2018-12-27T01:41:58.676Z,-0.76
2018-12-27T01:44:27.263Z,-0.78
2018-12-27T01:46:55.860Z,-0.84
2018-12-27T01:49:24.477Z,-0.85
2018-12-27T01:51:54.601Z,-0.90
2018-12-27T01:54:23.172Z,-0.91
2018-12-27T01:56:51.839Z,-0.92
2018-12-27T01:59:20.474Z,-0.93
2018-12-27T02:01:49.228Z,-0.94
2018-12-27T02:04:17.826Z,-0.94
2018-12-27T02:06:46.451Z,-0.99
2018-12-27T02:09:15.074Z,-1.08
2018-12-27T02:11:43.677Z,-1.05
2018-12-27T02:14:12.429Z,-1.12
2018-12-27T02:16:41.061Z,-1.19
2018-12-27T02:19:09.642Z,-1.17
2018-12-27T02:21:38.248Z,-1.18
2018-12-27T02:24:06.906Z,-1.18
2018-12-27T02:26:35.517Z,-1.18
2018-12-27T02:29:04.183Z,-1.15
2018-12-27T02:31:32.852Z,-1.14
2018-12-27T02:34:01.558Z,-1.12
2018-12-27T02:36:30.166Z,-1.09
2018-12-27T02:38:58.783Z,-1.11
2018-12-27T02:41:27.389Z,-1.11
2018-12-27T02:43:59.313Z,-1.09
2018-12-27T02:46:27.861Z,-1.08
2018-12-27T02:48:56.491Z,-1.12
2018-12-27T02:51:25.121Z,-4.89
2018-12-27T02:53:53.735Z,-1.07
2018-12-27T02:56:22.353Z,-1.18
2018-12-27T02:58:50.945Z,-1.15
2018-12-27T03:01:19.573Z,-1.15
2018-12-27T03:03:48.217Z,-1.16
2018-12-27T03:06:16.871Z,-1.13
2018-12-27T03:08:45.471Z,-1.13
2018-12-27T03:11:14.065Z,-1.11
2018-12-27T03:13:42.680Z,-1.08
2018-12-27T03:16:11.285Z,-1.05
2018-12-27T03:18:39.957Z,-1.02
2018-12-27T03:21:08.534Z,-1.02
2018-12-27T03:23:37.159Z,-1.04
2018-12-27T03:26:05.761Z,-1.06
2018-12-27T03:28:34.455Z,-1.07
2018-12-27T03:31:03.111Z,-1.07
2018-12-27T03:33:31.689Z,-1.08
2018-12-27T03:36:00.278Z,-1.14
2018-12-27T03:38:28.910Z,-1.20
2018-12-27T03:40:57.544Z,-1.19
2018-12-27T03:43:26.144Z,-1.19
2018-12-27T03:45:54.788Z,-1.30
2018-12-27T03:48:23.391Z,-1.33
2018-12-27T03:50:51.973Z,-1.31
2018-12-27T03:53:20.623Z,-1.33
2018-12-27T03:55:49.195Z,-1.39
2018-12-27T03:58:17.896Z,-1.44
2018-12-27T04:00:46.495Z,-1.48
2018-12-27T04:03:15.101Z,-1.45
2018-12-27T04:05:43.703Z,-1.46
2018-12-27T04:08:12.292Z,-1.45
2018-12-27T04:10:40.916Z,-1.41
2018-12-27T04:13:09.516Z,-1.34
2018-12-27T04:15:37.757Z,-1.31
2018-12-27T04:18:06.039Z,-1.31
2018-12-27T04:20:34.314Z,-1.23
2018-12-27T04:23:02.600Z,-1.22
2018-12-27T04:25:30.851Z,-1.19
2018-12-27T04:27:59.120Z,-1.21
2018-12-27T04:30:27.460Z,-1.25
2018-12-27T04:32:55.775Z,-1.26
2018-12-27T04:35:24.126Z,-1.25
2018-12-27T04:37:52.398Z,-1.26
2018-12-27T04:40:20.649Z,-1.26
2018-12-27T04:42:48.913Z,-1.30
2018-12-27T04:45:17.225Z,-1.40
2018-12-27T04:47:45.512Z,-1.36
2018-12-27T04:50:13.767Z,-1.33
2018-12-27T04:52:42.086Z,-1.27
2018-12-27T04:55:10.351Z,-1.26
2018-12-27T04:57:38.640Z,-1.27
2018-12-27T05:00:07.585Z,-1.27
2018-12-27T05:02:35.925Z,-1.28
2018-12-27T05:05:04.251Z,-1.28
2018-12-27T05:07:32.508Z,-1.25
2018-12-27T05:10:00.826Z,-1.24
2018-12-27T05:12:29.084Z,-1.25
2018-12-27T05:14:57.348Z,-1.25
2018-12-27T05:17:25.614Z,-1.24
2018-12-27T05:19:53.990Z,-1.30
2018-12-27T05:22:22.243Z,-1.33
2018-12-27T05:24:50.540Z,-1.25
2018-12-27T05:27:18.796Z,-1.26
2018-12-27T05:29:47.043Z,-1.22
2018-12-27T05:32:15.381Z,-1.33
2018-12-27T05:34:43.764Z,-1.55
2018-12-27T05:37:12.128Z,-1.60
2018-12-27T05:39:40.394Z,-1.58
2018-12-27T05:42:08.692Z,-1.69
2018-12-27T05:44:37.033Z,-1.58
2018-12-27T05:47:05.287Z,-1.55
2018-12-27T05:49:35.765Z,-1.56
2018-12-27T05:52:04.029Z,-1.52
2018-12-27T05:54:32.288Z,-1.46
2018-12-27T05:57:00.703Z,-1.44
2018-12-27T05:59:28.957Z,-1.45
2018-12-27T06:01:57.365Z,-1.58
2018-12-27T06:04:25.630Z,-1.70
2018-12-27T06:06:53.979Z,-1.85
2018-12-27T06:09:22.265Z,-1.85
2018-12-27T06:11:50.544Z,-1.80
2018-12-27T06:14:18.835Z,-1.89
2018-12-27T06:16:49.081Z,-1.93
2018-12-27T06:19:17.397Z,-1.94
2018-12-27T06:21:45.650Z,-1.95
2018-12-27T06:24:13.959Z,-1.92
2018-12-27T06:26:42.238Z,-1.95
2018-12-27T06:29:10.483Z,-1.90
2018-12-27T06:31:38.750Z,-1.99
2018-12-27T06:34:07.029Z,-2.03
2018-12-27T06:36:35.280Z,-1.96
2018-12-27T06:39:05.143Z,-1.87
2018-12-27T06:41:33.372Z,-1.87
2018-12-27T06:44:01.647Z,-1.86
2018-12-27T06:46:29.948Z,-1.78
2018-12-27T06:48:58.211Z,-1.71
2018-12-27T06:51:26.476Z,-1.66
2018-12-27T06:53:54.817Z,-1.61
2018-12-27T06:56:23.156Z,-1.58
2018-12-27T06:58:54.262Z,-1.50
2018-12-27T07:01:22.577Z,-1.43
2018-12-27T07:03:50.844Z,-1.41
2018-12-27T07:06:19.102Z,-1.39
2018-12-27T07:08:47.367Z,-1.40
2018-12-27T07:11:15.625Z,-1.40
2018-12-27T07:13:43.909Z,-1.39
2018-12-27T07:16:12.154Z,-1.31
2018-12-27T07:18:40.437Z,-1.30
2018-12-27T07:21:08.727Z,-1.25
2018-12-27T07:23:45.829Z,-1.26
2018-12-27T07:26:14.157Z,-1.22
2018-12-27T07:28:42.460Z,-1.18
2018-12-27T07:31:10.727Z,-1.18
2018-12-27T07:33:39.018Z,-1.15
2018-12-27T07:36:07.284Z,-1.13
2018-12-27T07:38:35.598Z,-1.13
2018-12-27T07:41:04.010Z,-1.08
2018-12-27T07:43:32.371Z,-1.16
2018-12-27T07:46:00.703Z,-1.16
2018-12-27T07:48:29.030Z,-1.11
2018-12-27T07:50:57.363Z,-1.15
2018-12-27T07:53:25.647Z,-1.25
2018-12-27T07:55:53.910Z,-1.24
2018-12-27T07:58:22.198Z,-1.21
2018-12-27T08:00:50.500Z,-1.26
2018-12-27T08:03:18.813Z,-1.80
2018-12-27T08:05:47.154Z,-1.23
2018-12-27T08:08:15.409Z,-1.19
2018-12-27T08:10:43.708Z,-1.17
2018-12-27T08:13:11.959Z,-1.09
2018-12-27T08:15:40.403Z,-1.06
2018-12-27T08:18:08.687Z,-1.04
2018-12-27T08:20:36.963Z,-1.01
2018-12-27T08:23:05.263Z,-0.93
2018-12-27T08:25:33.611Z,-0.85
2018-12-27T08:28:01.978Z,-1.41
2018-12-27T08:30:30.308Z,-0.72
2018-12-27T08:32:58.581Z,-0.65
2018-12-27T08:35:26.854Z,-0.60
2018-12-27T08:37:55.138Z,-0.56
2018-12-27T08:40:23.409Z,-0.56
2018-12-27T08:42:51.760Z,-0.55
2018-12-27T08:45:20.059Z,-0.53
2018-12-27T08:47:48.407Z,-0.52
2018-12-27T08:50:16.717Z,-0.46
2018-12-27T08:52:45.083Z,-0.44
2018-12-27T08:55:13.519Z,-0.38
2018-12-27T08:57:41.804Z,-0.36
2018-12-27T09:00:10.165Z,-0.31
2018-12-27T09:02:38.468Z,-0.27
2018-12-27T09:05:06.915Z,-0.21
2018-12-27T09:07:35.185Z,-0.12
2018-12-27T09:10:04.150Z,-0.04
2018-12-27T09:12:32.452Z,0.02
2018-12-27T09:15:00.778Z,0.05
2018-12-27T09:17:29.099Z,0.08
2018-12-27T09:19:57.377Z,0.14
2018-12-27T09:22:25.724Z,0.15
2018-12-27T09:24:54.006Z,0.18
2018-12-27T09:27:22.395Z,0.19
2018-12-27T09:29:50.747Z,0.20
2018-12-27T09:32:19.015Z,0.22
2018-12-27T09:34:47.307Z,0.22
2018-12-27T09:37:15.679Z,0.24
2018-12-27T09:39:43.964Z,0.27
2018-12-27T09:42:12.382Z,0.32
2018-12-27T09:44:40.671Z,0.38
2018-12-27T09:47:09.013Z,0.47
2018-12-27T09:49:37.359Z,0.53
2018-12-27T09:52:05.684Z,0.64
2018-12-27T09:54:34.127Z,0.73
2018-12-27T09:57:02.508Z,0.85
2018-12-27T09:59:30.835Z,0.97
2018-12-27T10:01:59.289Z,1.09
2018-12-27T10:04:27.595Z,1.22
2018-12-27T10:06:55.987Z,1.37
2018-12-27T10:09:24.290Z,1.56
2018-12-27T10:11:52.656Z,1.72
2018-12-27T10:14:20.922Z,1.90
2018-12-27T10:16:49.313Z,2.09
2018-12-27T10:19:17.584Z,2.30
2018-12-27T10:21:45.855Z,2.49
2018-12-27T10:24:14.190Z,2.66
2018-12-27T10:26:42.643Z,2.83
2018-12-27T10:29:11.025Z,2.94
2018-12-27T10:31:39.301Z,3.03
2018-12-27T10:34:07.580Z,3.04
2018-12-27T10:36:35.863Z,2.99
2018-12-27T10:39:05.784Z,2.83
2018-12-27T10:41:34.102Z,2.69
2018-12-27T10:44:02.457Z,2.62
2018-12-27T10:46:30.805Z,2.58
2018-12-27T10:48:59.278Z,2.54
2018-12-27T10:51:27.562Z,2.49
2018-12-27T10:53:55.856Z,2.44
2018-12-27T10:56:24.144Z,2.38
2018-12-27T10:58:52.515Z,2.35
2018-12-27T11:01:20.806Z,2.32
2018-12-27T11:03:49.146Z,2.27
2018-12-27T11:06:17.501Z,2.21
2018-12-27T11:08:45.758Z,2.24
2018-12-27T11:11:14.051Z,2.19
2018-12-27T11:13:42.322Z,2.23
2018-12-27T11:16:10.736Z,2.26
2018-12-27T11:18:39.031Z,2.28
2018-12-27T11:21:07.428Z,2.36
2018-12-27T11:23:35.759Z,2.37
2018-12-27T11:26:04.046Z,2.39
2018-12-27T11:28:32.307Z,2.40
2018-12-27T11:31:00.692Z,2.45
2018-12-27T11:33:29.059Z,2.37
2018-12-27T11:35:57.413Z,2.39
2018-12-27T11:38:25.770Z,2.46
2018-12-27T11:40:54.038Z,2.54
2018-12-27T11:43:22.327Z,2.60
2018-12-27T11:45:50.587Z,2.60
2018-12-27T11:48:18.867Z,2.63
2018-12-27T11:50:47.197Z,2.64
2018-12-27T11:53:15.611Z,2.68
2018-12-27T11:55:43.903Z,2.73
2018-12-27T11:58:12.227Z,2.75
2018-12-27T12:00:40.560Z,2.79
2018-12-27T12:03:08.825Z,2.84
2018-12-27T12:05:37.253Z,2.87
2018-12-27T12:08:05.499Z,2.92
2018-12-27T12:10:33.815Z,2.97
2018-12-27T12:13:02.093Z,3.00
2018-12-27T12:15:30.406Z,3.02
2018-12-27T12:17:58.843Z,3.03
2018-12-27T12:20:27.181Z,3.07
2018-12-27T12:22:55.463Z,3.04
2018-12-27T12:25:23.736Z,3.06
2018-12-27T12:27:52.111Z,3.10
2018-12-27T12:30:20.374Z,2.32
2018-12-27T12:32:48.644Z,3.18
2018-12-27T12:35:17.067Z,3.20
2018-12-27T12:37:45.388Z,3.21
2018-12-27T12:40:13.684Z,2.05
2018-12-27T12:42:41.954Z,3.17
2018-12-27T12:45:10.243Z,3.14
2018-12-27T12:47:38.519Z,3.02
2018-12-27T12:50:07.728Z,2.95
2018-12-27T12:52:35.997Z,2.83
2018-12-27T12:55:05.015Z,2.84
2018-12-27T12:57:33.306Z,2.82
2018-12-27T13:00:01.604Z,2.79
2018-12-27T13:02:29.962Z,2.80
2018-12-27T13:04:58.281Z,2.84
2018-12-27T13:07:26.659Z,2.85
2018-12-27T13:09:54.939Z,2.86
2018-12-27T13:12:23.281Z,2.84
2018-12-27T13:14:51.700Z,2.84
2018-12-27T13:17:21.052Z,2.86
2018-12-27T13:19:49.493Z,2.89
2018-12-27T13:22:17.959Z,2.92
2018-12-27T13:24:46.680Z,2.96
2018-12-27T13:27:15.155Z,2.98
2018-12-27T13:29:43.424Z,2.96
2018-12-27T13:32:11.690Z,2.94
2018-12-27T13:34:40.079Z,2.75
2018-12-27T13:37:08.577Z,2.73
2018-12-27T13:39:37.303Z,2.63
2018-12-27T13:42:06.097Z,2.64
2018-12-27T13:44:34.847Z,2.66
2018-12-27T13:47:03.202Z,2.61
2018-12-27T13:49:31.486Z,2.61
2018-12-27T13:51:59.839Z,2.64
2018-12-27T13:54:29.030Z,2.61
2018-12-27T13:56:57.287Z,2.56
2018-12-27T13:59:25.565Z,2.55
2018-12-27T14:01:53.907Z,2.49
2018-12-27T14:04:22.204Z,2.43
2018-12-27T14:06:50.575Z,2.36
2018-12-27T14:09:18.821Z,2.33
2018-12-27T14:11:47.105Z,2.28
2018-12-27T14:14:15.401Z,2.25
2018-12-27T14:16:43.670Z,2.20
2018-12-27T14:19:11.991Z,2.14
2018-12-27T14:21:40.322Z,2.09
2018-12-27T14:24:08.627Z,2.05
2018-12-27T14:26:37.064Z,1.90
2018-12-27T14:29:05.338Z,1.64
2018-12-27T14:31:33.716Z,1.49
2018-12-27T14:34:02.123Z,1.44
2018-12-27T14:36:31.617Z,1.31
2018-12-27T14:39:00.032Z,1.23
2018-12-27T14:41:28.506Z,1.20
2018-12-27T14:43:56.879Z,1.23
2018-12-27T14:46:25.341Z,1.24
2018-12-27T14:48:53.751Z,1.18
2018-12-27T14:51:22.157Z,1.18
2018-12-27T14:53:50.585Z,0.38
2018-12-27T14:56:18.860Z,1.15
2018-12-27T14:58:47.134Z,-4.45
2018-12-27T15:01:15.596Z,1.12
2018-12-27T15:03:44.007Z,1.10
2018-12-27T15:06:12.283Z,1.06
2018-12-27T15:08:40.591Z,1.06
2018-12-27T15:11:08.893Z,0.98
2018-12-27T15:13:37.169Z,0.93
2018-12-27T15:16:05.543Z,0.88
2018-12-27T15:18:33.812Z,0.79
2018-12-27T15:21:02.259Z,0.80
2018-12-27T15:23:30.533Z,0.72
2018-12-27T15:25:58.883Z,0.71
2018-12-27T15:28:27.154Z,0.67
2018-12-27T15:30:55.507Z,0.61
2018-12-27T15:33:23.803Z,0.55
2018-12-27T15:35:52.202Z,0.50
2018-12-27T15:38:20.563Z,0.50
2018-12-27T15:40:48.832Z,0.43
2018-12-27T15:43:17.135Z,0.41
2018-12-27T15:45:45.442Z,0.37
2018-12-27T15:48:13.793Z,0.34
2018-12-27T15:50:42.102Z,0.30
2018-12-27T15:53:10.343Z,0.31
2018-12-27T15:55:38.632Z,0.24
2018-12-27T15:58:06.921Z,0.17
2018-12-27T16:00:35.169Z,0.23
2018-12-27T16:03:03.440Z,0.21
2018-12-27T16:05:31.730Z,0.22
2018-12-27T16:08:00.045Z,0.24
2018-12-27T16:10:28.332Z,0.22
2018-12-27T16:12:56.618Z,0.24
2018-12-27T16:15:24.906Z,0.23
2018-12-27T16:17:53.251Z,0.22
2018-12-27T16:20:21.509Z,0.23
2018-12-27T16:22:49.859Z,0.22
2018-12-27T16:25:18.165Z,0.20
2018-12-27T16:27:46.434Z,0.22
2018-12-27T16:30:14.849Z,0.24
2018-12-27T16:32:43.123Z,0.22
2018-12-27T16:35:11.399Z,0.21
2018-12-27T16:37:39.668Z,0.20
2018-12-27T16:40:08.685Z,0.21
2018-12-27T16:42:37.054Z,0.20
2018-12-27T16:45:05.677Z,0.18
2018-12-27T16:47:34.010Z,0.18
2018-12-27T16:50:02.319Z,0.16
2018-12-27T16:52:30.590Z,0.15
2018-12-27T16:54:58.974Z,0.14
2018-12-27T16:57:27.247Z,0.14
2018-12-27T16:59:55.541Z,0.15
2018-12-27T17:02:23.820Z,0.17
2018-12-27T17:04:52.087Z,0.18
2018-12-27T17:07:20.441Z,0.18
2018-12-27T17:09:48.829Z,0.18
2018-12-27T17:12:17.160Z,0.16
2018-12-27T17:14:45.436Z,0.15
2018-12-27T17:17:13.804Z,0.13
2018-12-27T17:19:42.076Z,0.11
2018-12-27T17:22:10.420Z,0.06
2018-12-27T17:24:38.812Z,0.05
2018-12-27T17:27:07.166Z,0.05
2018-12-27T17:29:35.440Z,0.06
2018-12-27T17:32:03.786Z,0.04
2018-12-27T17:34:32.109Z,0.05
2018-12-27T17:37:00.483Z,0.03
2018-12-27T17:39:28.766Z,0.03
2018-12-27T17:41:57.091Z,0.03
2018-12-27T17:44:25.397Z,0.00
2018-12-27T17:46:53.749Z,-0.01
2018-12-27T17:49:22.217Z,-0.06
2018-12-27T17:51:50.482Z,-0.04
2018-12-27T17:54:19.999Z,-0.05
2018-12-27T17:56:48.546Z,-0.07
2018-12-27T17:59:16.830Z,-0.12
2018-12-27T18:01:45.126Z,-0.14
2018-12-27T18:04:13.404Z,-0.14
2018-12-27T18:06:41.669Z,-0.14
2018-12-27T18:09:09.957Z,-0.15
2018-12-27T18:11:38.223Z,-0.13
2018-12-27T18:14:06.498Z,-0.12
2018-12-27T18:16:34.790Z,-0.13
2018-12-27T18:19:03.083Z,-0.16
2018-12-27T18:21:31.446Z,-0.20
2018-12-27T18:23:59.720Z,-0.21
2018-12-27T18:26:28.025Z,-0.17
2018-12-27T18:28:56.372Z,-0.17
2018-12-27T18:31:24.649Z,-0.15
2018-12-27T18:33:53.115Z,-0.16
2018-12-27T18:36:21.407Z,-0.15
2018-12-27T18:38:50.768Z,-0.15
2018-12-27T18:41:19.145Z,-0.15
2018-12-27T18:43:47.422Z,-0.15
2018-12-27T18:46:15.734Z,-0.14
2018-12-27T18:48:44.018Z,-0.15
2018-12-27T18:51:12.294Z,-0.16
2018-12-27T18:53:40.657Z,-0.15
2018-12-27T18:56:08.926Z,-0.14
2018-12-27T18:58:37.218Z,-0.15
2018-12-27T19:01:05.705Z,-0.17
2018-12-27T19:03:34.070Z,-0.15
2018-12-27T19:06:02.393Z,-0.13
2018-12-27T19:08:30.786Z,-0.14
2018-12-27T19:11:36.351Z,-0.15
2018-12-27T19:14:04.703Z,-0.20
2018-12-27T19:16:33.047Z,-0.13
2018-12-27T19:19:01.364Z,-0.17
2018-12-27T19:21:30.380Z,-0.20
2018-12-27T19:23:58.676Z,-0.16
2018-12-27T19:26:27.042Z,-0.16
2018-12-27T19:28:55.310Z,-0.13
2018-12-27T19:31:23.587Z,-0.13
2018-12-27T19:33:51.834Z,-0.13
2018-12-27T19:36:20.087Z,-0.11
2018-12-27T19:38:48.469Z,-0.82
2018-12-27T19:41:16.724Z,-0.07
2018-12-27T19:43:45.010Z,-0.06
2018-12-27T19:46:13.284Z,-0.11
2018-12-27T19:48:41.551Z,-0.10
2018-12-27T19:51:09.842Z,-0.13
2018-12-27T19:53:38.134Z,-0.19
2018-12-27T19:56:06.414Z,-0.17
2018-12-27T19:58:34.658Z,-0.13
2018-12-27T20:01:02.914Z,-0.07
2018-12-27T20:03:31.209Z,-0.10
2018-12-27T20:06:01.218Z,-0.10
2018-12-27T20:08:29.853Z,-0.06
2018-12-27T20:10:58.387Z,-0.05
2018-12-27T20:13:26.931Z,-0.02
2018-12-27T20:15:55.422Z,0.00
2018-12-27T20:18:23.806Z,0.00
2018-12-27T20:20:52.299Z,0.06
2018-12-27T20:23:20.846Z,0.09
2018-12-27T20:25:49.242Z,0.14
2018-12-27T20:28:17.723Z,0.15
2018-12-27T20:30:46.107Z,0.15
2018-12-27T20:33:14.528Z,0.18
2018-12-27T20:35:42.845Z,0.21
2018-12-27T20:38:11.194Z,0.16
2018-12-27T20:40:39.605Z,0.14
2018-12-27T20:43:08.008Z,-0.95
2018-12-27T20:45:36.367Z,0.15
2018-12-27T20:48:04.785Z,0.12
2018-12-27T20:50:33.311Z,0.08
2018-12-27T20:53:01.750Z,0.05
2018-12-27T20:55:30.174Z,0.04
2018-12-27T20:57:58.586Z,0.04
2018-12-27T21:00:28.681Z,0.01
2018-12-27T21:02:57.242Z,0.06
2018-12-27T21:05:25.655Z,0.10
2018-12-27T21:07:54.135Z,0.10
2018-12-27T21:10:22.607Z,0.07
2018-12-27T21:12:51.086Z,0.05
2018-12-27T21:15:19.462Z,0.05
2018-12-27T21:17:47.816Z,0.03
2018-12-27T21:20:16.172Z,0.05
2018-12-27T21:22:44.587Z,0.06
2018-12-27T21:25:13.047Z,0.05
2018-12-27T21:27:41.576Z,-0.01
2018-12-27T21:30:09.926Z,-0.04
2018-12-27T21:32:38.382Z,-0.07
2018-12-27T21:35:06.940Z,-0.06
2018-12-27T21:37:35.389Z,-0.06
2018-12-27T21:40:04.186Z,-4.87
2018-12-27T21:42:32.580Z,-0.04
2018-12-27T21:45:01.029Z,-0.09
2018-12-27T21:47:29.413Z,-0.10
2018-12-27T21:49:57.722Z,-0.21
2018-12-27T21:52:26.026Z,-0.23
2018-12-27T21:54:54.356Z,-0.24
2018-12-27T21:57:22.765Z,-0.47
2018-12-27T21:59:51.223Z,-0.21
2018-12-27T22:02:19.652Z,-0.26
2018-12-27T22:04:48.048Z,-0.25
2018-12-27T22:07:16.411Z,-0.26
2018-12-27T22:09:44.759Z,-0.25
2018-12-27T22:12:13.078Z,-0.27
2018-12-27T22:14:41.408Z,-0.22
2018-12-27T22:17:09.747Z,-0.18
2018-12-27T22:19:38.062Z,-0.13
2018-12-27T22:22:06.325Z,-0.12
2018-12-27T22:24:34.861Z,-0.09
2018-12-27T22:27:04.827Z,-0.04
2018-12-27T22:29:35.097Z,-0.02
2018-12-27T22:32:03.364Z,-0.01
2018-12-27T22:34:31.644Z,-0.01
2018-12-27T22:36:59.945Z,-0.04
2018-12-27T22:39:28.197Z,-0.04
2018-12-27T22:41:56.529Z,-0.07
2018-12-27T22:44:24.826Z,-0.05
2018-12-27T22:46:53.106Z,-0.05
2018-12-27T22:49:21.448Z,-0.05
2018-12-27T22:51:49.701Z,-0.06
2018-12-27T22:54:18.000Z,-0.08
2018-12-27T22:56:46.323Z,-0.10
2018-12-27T22:59:14.598Z,-0.07
2018-12-27T23:01:42.963Z,-0.08
2018-12-27T23:04:12.526Z,-0.08
2018-12-27T23:06:40.821Z,-0.09
2018-12-27T23:09:09.183Z,-0.15
2018-12-27T23:11:37.498Z,-0.14
2018-12-27T23:14:05.781Z,-0.16
2018-12-27T23:16:34.064Z,-0.14
2018-12-27T23:19:02.322Z,-0.16
2018-12-27T23:21:30.596Z,-0.11
2018-12-27T23:23:58.870Z,-0.07
2018-12-27T23:26:27.200Z,-0.06
2018-12-27T23:28:55.453Z,-0.03
2018-12-27T23:31:23.694Z,-0.06
2018-12-27T23:33:51.964Z,-0.08
2018-12-27T23:36:20.240Z,-0.12
2018-12-27T23:38:50.407Z,-0.12
2018-12-27T23:41:18.545Z,-0.11
2018-12-27T23:43:46.794Z,-0.14
2018-12-27T23:46:15.135Z,-0.12
2018-12-27T23:48:43.484Z,-0.14
2018-12-27T23:51:11.915Z,-0.12
2018-12-27T23:53:40.203Z,-0.13
2018-12-27T23:56:08.466Z,-0.13
2018-12-27T23:58:38.896Z,-0.20
